createdAt,value
2016-10-20T00:00:50.364Z,0
2016-10-20T00:02:02.842Z,0
2016-10-20T00:03:15.381Z,0
2016-10-20T00:04:28.343Z,0
2016-10-20T00:05:41.385Z,0
2016-10-20T00:06:54.935Z,0
2016-10-20T00:08:07.941Z,0
2016-10-20T00:09:21.471Z,0
2016-10-20T00:10:33.450Z,0
2016-10-20T00:11:46.482Z,0
2016-10-20T00:12:58.937Z,0
2016-10-20T00:14:11.473Z,0
2016-10-20T00:15:24.982Z,0
2016-10-20T00:16:38.158Z,0
2016-10-20T00:17:50.608Z,0
2016-10-20T00:19:02.494Z,0
2016-10-20T00:20:15.483Z,0
2016-10-20T00:21:27.418Z,0
2016-10-20T00:22:39.992Z,0
2016-10-20T00:23:52.379Z,0
2016-10-20T00:25:03.819Z,0
2016-10-20T00:26:16.327Z,0
2016-10-20T00:27:28.314Z,0
2016-10-20T00:28:41.316Z,0
2016-10-20T00:29:54.253Z,0
2016-10-20T00:31:06.667Z,0
2016-10-20T00:32:19.079Z,0
2016-10-20T00:33:31.690Z,0
2016-10-20T00:34:44.172Z,0
2016-10-20T00:35:57.179Z,0
2016-10-20T00:37:10.125Z,0
2016-10-20T00:38:22.597Z,0
2016-10-20T00:39:36.154Z,0
2016-10-20T00:40:49.693Z,0
2016-10-20T00:42:02.194Z,0
2016-10-20T00:43:14.616Z,0
2016-10-20T00:44:26.681Z,0
2016-10-20T00:45:39.172Z,0
2016-10-20T00:46:50.600Z,0
2016-10-20T00:48:04.127Z,0
2016-10-20T00:49:17.097Z,0
2016-10-20T00:50:30.176Z,0
2016-10-20T00:51:43.181Z,0
2016-10-20T00:52:55.597Z,0
2016-10-20T00:54:09.130Z,0
2016-10-20T00:55:22.271Z,0
2016-10-20T00:56:34.174Z,0
2016-10-20T00:57:46.610Z,0
2016-10-20T00:58:57.972Z,0
2016-10-20T01:00:10.418Z,0
2016-10-20T01:01:23.983Z,0
2016-10-20T01:02:36.399Z,0
2016-10-20T01:03:49.344Z,0
2016-10-20T01:05:02.259Z,0
2016-10-20T01:06:15.229Z,0
2016-10-20T01:07:27.100Z,0
2016-10-20T01:08:39.014Z,0
2016-10-20T01:09:52.002Z,0
2016-10-20T01:11:04.905Z,0
2016-10-20T01:12:16.752Z,0
2016-10-20T01:13:29.699Z,0
2016-10-20T01:14:42.052Z,0
2016-10-20T01:15:54.978Z,0
2016-10-20T01:17:06.465Z,0
2016-10-20T01:18:19.991Z,0
2016-10-20T01:19:31.923Z,0
2016-10-20T01:20:45.425Z,0
2016-10-20T01:21:58.854Z,0
2016-10-20T01:23:11.227Z,0
2016-10-20T01:24:23.602Z,0
2016-10-20T01:25:36.142Z,0
2016-10-20T01:26:49.671Z,0
2016-10-20T01:28:02.785Z,0
2016-10-20T01:29:15.792Z,0
2016-10-20T01:30:28.349Z,0
2016-10-20T01:31:40.796Z,0
2016-10-20T01:32:53.287Z,0
2016-10-20T01:34:05.515Z,0
2016-10-20T01:35:17.109Z,0
2016-10-20T01:36:30.112Z,0
2016-10-20T01:37:42.487Z,0
2016-10-20T01:38:55.021Z,0
2016-10-20T01:40:07.439Z,0
2016-10-20T01:41:19.838Z,0
2016-10-20T01:42:32.769Z,0
2016-10-20T01:43:45.272Z,0
2016-10-20T01:44:58.181Z,0
2016-10-20T01:46:09.514Z,0
2016-10-20T01:47:21.608Z,0
2016-10-20T01:48:34.653Z,0
2016-10-20T01:49:45.649Z,0
2016-10-20T01:50:58.594Z,0
2016-10-20T01:52:11.577Z,0
2016-10-20T01:53:24.430Z,0
2016-10-20T01:54:37.848Z,0
2016-10-20T01:55:50.730Z,0
2016-10-20T01:57:03.171Z,0
2016-10-20T01:58:16.087Z,0
2016-10-20T01:59:28.535Z,0
2016-10-20T02:00:41.617Z,0
2016-10-20T02:01:54.564Z,0
2016-10-20T02:03:06.445Z,0
2016-10-20T02:04:18.309Z,0
2016-10-20T02:05:31.282Z,0
2016-10-20T02:06:43.783Z,0
2016-10-20T02:07:56.211Z,0
2016-10-20T02:09:08.065Z,0
2016-10-20T02:10:20.500Z,0
2016-10-20T02:11:32.060Z,0
2016-10-20T02:12:44.474Z,0
2016-10-20T02:13:56.865Z,0
2016-10-20T02:15:10.075Z,0
2016-10-20T02:16:23.091Z,0
2016-10-20T02:17:36.056Z,0
2016-10-20T02:18:47.364Z,0
2016-10-20T02:19:58.755Z,0
2016-10-20T02:21:12.219Z,0
2016-10-20T02:22:25.264Z,0
2016-10-20T02:23:38.142Z,0
2016-10-20T02:24:51.040Z,0
2016-10-20T02:26:03.986Z,0
2016-10-20T02:27:16.375Z,0
2016-10-20T02:28:29.443Z,0
2016-10-20T02:29:41.837Z,0
2016-10-20T02:30:53.726Z,0
2016-10-20T02:32:07.131Z,0
2016-10-20T02:33:20.167Z,0
2016-10-20T02:34:33.654Z,0
2016-10-20T02:35:46.030Z,0
2016-10-20T02:36:58.447Z,0
2016-10-20T02:38:09.820Z,0
2016-10-20T02:39:21.685Z,0
2016-10-20T02:40:34.075Z,0
2016-10-20T02:41:47.003Z,0
2016-10-20T02:43:00.381Z,0
2016-10-20T02:44:13.479Z,0
2016-10-20T02:45:25.886Z,0
2016-10-20T02:46:39.344Z,0
2016-10-20T02:47:51.727Z,0
2016-10-20T02:49:04.207Z,0
2016-10-20T02:50:17.215Z,0
2016-10-20T02:51:30.169Z,0
2016-10-20T02:52:42.562Z,0
2016-10-20T02:53:56.067Z,0
2016-10-20T02:55:09.276Z,0
2016-10-20T02:56:21.138Z,0
2016-10-20T02:57:33.570Z,0
2016-10-20T02:58:45.431Z,0
2016-10-20T02:59:57.967Z,0
2016-10-20T03:01:11.461Z,0
2016-10-20T03:02:24.022Z,0
2016-10-20T03:03:36.967Z,0
2016-10-20T03:04:49.420Z,0
2016-10-20T03:06:02.128Z,0
2016-10-20T03:07:15.058Z,0
2016-10-20T03:08:27.981Z,0
2016-10-20T03:09:40.356Z,0
2016-10-20T03:10:52.247Z,0
2016-10-20T03:12:04.284Z,0
2016-10-20T03:13:17.770Z,0
2016-10-20T03:14:30.713Z,0
2016-10-20T03:15:43.766Z,0
2016-10-20T03:16:56.888Z,0
2016-10-20T03:18:08.200Z,0
2016-10-20T03:19:19.546Z,0
2016-10-20T03:20:32.541Z,0
2016-10-20T03:21:45.549Z,0
2016-10-20T03:22:58.293Z,0
2016-10-20T03:24:10.887Z,0
2016-10-20T03:25:23.929Z,0
2016-10-20T03:26:36.891Z,0
2016-10-20T03:27:48.945Z,0
2016-10-20T03:29:01.883Z,0
2016-10-20T03:30:14.256Z,0
2016-10-20T03:31:27.250Z,0
2016-10-20T03:32:39.160Z,0
2016-10-20T03:33:52.212Z,0
2016-10-20T03:35:05.165Z,0
2016-10-20T03:36:17.532Z,0
2016-10-20T03:37:29.433Z,0
2016-10-20T03:38:41.374Z,0
2016-10-20T03:39:53.763Z,0
2016-10-20T03:41:05.674Z,0
2016-10-20T03:42:17.648Z,0
2016-10-20T03:43:30.555Z,0
2016-10-20T03:44:43.128Z,0
2016-10-20T03:45:55.065Z,0
2016-10-20T03:47:07.204Z,0
2016-10-20T03:48:20.198Z,0
2016-10-20T03:49:33.211Z,0
2016-10-20T03:50:46.716Z,0
2016-10-20T03:51:58.748Z,0
2016-10-20T03:53:10.679Z,0
2016-10-20T03:54:21.675Z,0
2016-10-20T03:55:34.083Z,0
2016-10-20T03:56:47.006Z,0
2016-10-20T03:57:59.472Z,0
2016-10-20T03:59:11.949Z,0
2016-10-20T04:00:24.016Z,0
2016-10-20T04:01:37.001Z,0
2016-10-20T04:02:49.509Z,0
2016-10-20T04:04:02.485Z,0
2016-10-20T04:05:13.458Z,0
2016-10-20T04:06:26.625Z,0
2016-10-20T04:07:40.263Z,0
2016-10-20T04:08:53.140Z,0
2016-10-20T04:10:06.120Z,0
2016-10-20T04:11:18.606Z,0
2016-10-20T04:12:30.973Z,0
2016-10-20T04:13:43.598Z,0
2016-10-20T04:14:56.542Z,0
2016-10-20T04:16:10.047Z,0
2016-10-20T04:17:22.672Z,0
2016-10-20T04:18:35.169Z,0
2016-10-20T04:19:48.613Z,0
2016-10-20T04:21:01.748Z,0
2016-10-20T04:22:15.491Z,0
2016-10-20T04:23:27.408Z,0
2016-10-20T04:24:40.366Z,0
2016-10-20T04:25:52.856Z,0
2016-10-20T04:27:06.455Z,0
2016-10-20T04:28:19.068Z,0
2016-10-20T04:29:31.543Z,0
2016-10-20T04:30:43.989Z,0
2016-10-20T04:31:56.902Z,0
2016-10-20T04:33:10.739Z,0
2016-10-20T04:34:23.731Z,0
2016-10-20T04:35:36.358Z,0
2016-10-20T04:36:49.288Z,0
2016-10-20T04:38:02.166Z,0
2016-10-20T04:39:14.573Z,0
2016-10-20T04:40:27.529Z,0
2016-10-20T04:41:39.947Z,0
2016-10-20T04:42:53.031Z,0
2016-10-20T04:44:05.630Z,0
2016-10-20T04:45:18.587Z,0
2016-10-20T04:46:29.960Z,0
2016-10-20T04:47:41.831Z,0
2016-10-20T04:48:54.466Z,0
2016-10-20T04:50:06.512Z,0
2016-10-20T04:51:19.466Z,0
2016-10-20T04:52:32.418Z,0
2016-10-20T04:53:44.775Z,0
2016-10-20T04:54:57.758Z,0
2016-10-20T04:56:10.744Z,0
2016-10-20T04:57:22.632Z,0
2016-10-20T04:58:36.177Z,0
2016-10-20T04:59:47.578Z,0
2016-10-20T05:00:59.953Z,0
2016-10-20T05:02:12.346Z,0
2016-10-20T05:03:25.487Z,0
2016-10-20T05:04:37.427Z,0
2016-10-20T05:05:50.490Z,0
2016-10-20T05:07:02.439Z,0
2016-10-20T05:08:14.825Z,0
2016-10-20T05:09:26.763Z,0
2016-10-20T05:10:38.655Z,0
2016-10-20T05:11:51.229Z,0
2016-10-20T05:13:04.120Z,0
2016-10-20T05:14:16.564Z,0
2016-10-20T05:15:29.515Z,0
2016-10-20T05:16:41.559Z,0
2016-10-20T05:17:55.009Z,0
2016-10-20T05:19:06.844Z,0
2016-10-20T05:20:20.026Z,0
2016-10-20T05:21:32.464Z,0
2016-10-20T05:22:44.887Z,0
2016-10-20T05:23:57.319Z,0
2016-10-20T05:25:10.280Z,0
2016-10-20T05:26:22.186Z,0
2016-10-20T05:27:35.748Z,0
2016-10-20T05:28:48.183Z,0
2016-10-20T05:30:00.627Z,0
2016-10-20T05:31:13.578Z,0
2016-10-20T05:32:27.222Z,0
2016-10-20T05:33:40.143Z,0
2016-10-20T05:34:53.171Z,0
2016-10-20T05:36:06.145Z,0
2016-10-20T05:37:18.576Z,0
2016-10-20T05:38:31.337Z,0
2016-10-20T05:39:43.752Z,0
2016-10-20T05:40:56.185Z,0
2016-10-20T05:42:07.527Z,0
2016-10-20T05:43:19.986Z,0
2016-10-20T05:44:33.058Z,0
2016-10-20T05:45:45.483Z,0
2016-10-20T05:46:57.373Z,0
2016-10-20T05:48:09.779Z,0
2016-10-20T05:49:23.564Z,0
2016-10-20T05:50:36.615Z,0
2016-10-20T05:51:48.570Z,0
2016-10-20T05:53:01.126Z,0
2016-10-20T05:54:13.530Z,0
2016-10-20T05:55:27.214Z,0
2016-10-20T05:56:40.670Z,0
2016-10-20T05:57:53.058Z,0
2016-10-20T05:59:05.444Z,0
2016-10-20T06:00:18.033Z,0
2016-10-20T06:01:30.976Z,0
2016-10-20T06:02:43.973Z,0
2016-10-20T06:03:56.369Z,0
2016-10-20T06:05:08.806Z,0
2016-10-20T06:06:21.732Z,0
2016-10-20T06:07:34.165Z,0
2016-10-20T06:08:46.585Z,0
2016-10-20T06:09:59.535Z,0
2016-10-20T06:11:12.132Z,0
2016-10-20T06:12:25.580Z,0
2016-10-20T06:13:39.140Z,0
2016-10-20T06:14:52.571Z,0
2016-10-20T06:16:05.544Z,0
2016-10-20T06:17:18.650Z,0
2016-10-20T06:18:31.607Z,0
2016-10-20T06:19:44.530Z,0
2016-10-20T06:20:56.467Z,0
2016-10-20T06:22:09.633Z,0
2016-10-20T06:23:23.181Z,0
2016-10-20T06:24:36.102Z,0
2016-10-20T06:25:47.466Z,0
2016-10-20T06:26:58.324Z,0
2016-10-20T06:28:11.670Z,0
2016-10-20T06:29:24.629Z,0
2016-10-20T06:30:37.084Z,0
2016-10-20T06:31:48.472Z,0
2016-10-20T06:33:00.973Z,0
2016-10-20T06:34:12.860Z,0
2016-10-20T06:35:25.401Z,0
2016-10-20T06:36:38.377Z,0
2016-10-20T06:37:51.347Z,0
2016-10-20T06:39:04.382Z,0
2016-10-20T06:40:16.323Z,0
2016-10-20T06:41:29.393Z,0
2016-10-20T06:42:41.832Z,0
2016-10-20T06:43:54.410Z,0
2016-10-20T06:45:07.871Z,0
2016-10-20T06:46:20.368Z,0
2016-10-20T06:47:33.331Z,0
2016-10-20T06:48:45.804Z,0
2016-10-20T06:49:58.690Z,0
2016-10-20T06:51:11.089Z,0
2016-10-20T06:52:24.023Z,0
2016-10-20T06:53:36.483Z,0
2016-10-20T06:54:48.606Z,0
2016-10-20T06:56:01.030Z,0
2016-10-20T06:57:13.100Z,0
2016-10-20T06:58:26.059Z,0
2016-10-20T06:59:38.477Z,0
2016-10-20T07:00:51.576Z,0
2016-10-20T07:02:03.439Z,0
2016-10-20T07:03:15.860Z,0
2016-10-20T07:04:27.854Z,0
2016-10-20T07:05:40.357Z,0
2016-10-20T07:06:53.837Z,0
2016-10-20T07:08:06.278Z,0
2016-10-20T07:09:18.888Z,0
2016-10-20T07:10:32.016Z,0
2016-10-20T07:11:44.366Z,0
2016-10-20T07:12:56.807Z,0
2016-10-20T07:14:09.746Z,0
2016-10-20T07:15:21.710Z,0
2016-10-20T07:16:34.291Z,0
2016-10-20T07:17:46.206Z,0
2016-10-20T07:18:59.265Z,0
2016-10-20T07:20:11.654Z,0
2016-10-20T07:21:24.631Z,0
2016-10-20T07:22:36.701Z,0
2016-10-20T07:23:48.028Z,0
2016-10-20T07:25:01.475Z,0
2016-10-20T07:26:14.486Z,0
2016-10-20T07:27:28.096Z,0
2016-10-20T07:28:41.109Z,0
2016-10-20T07:29:54.087Z,0
2016-10-20T07:31:06.455Z,0
2016-10-20T07:32:19.498Z,0
2016-10-20T07:33:31.298Z,0
2016-10-20T07:34:44.767Z,0
2016-10-20T07:35:57.263Z,0
2016-10-20T07:37:10.903Z,0
2016-10-20T07:38:23.490Z,0
2016-10-20T07:39:36.489Z,0
2016-10-20T07:40:49.937Z,0
2016-10-20T07:42:01.839Z,0
2016-10-20T07:43:14.797Z,0
2016-10-20T07:44:28.368Z,0
2016-10-20T07:45:40.319Z,0
2016-10-20T07:46:52.824Z,0
2016-10-20T07:48:05.249Z,0
2016-10-20T07:49:17.332Z,0
2016-10-20T07:50:29.765Z,0
2016-10-20T07:51:42.240Z,0
2016-10-20T07:52:54.158Z,0
2016-10-20T07:54:06.647Z,0
2016-10-20T07:55:19.558Z,0
2016-10-20T07:56:32.025Z,0
2016-10-20T07:57:44.498Z,0
2016-10-20T07:58:57.454Z,0
2016-10-20T08:00:10.673Z,12
2016-10-20T08:01:22.588Z,12
2016-10-20T08:02:35.014Z,12
2016-10-20T08:03:46.947Z,12
2016-10-20T08:04:58.297Z,4
2016-10-20T08:06:11.365Z,4
2016-10-20T08:07:24.820Z,4
2016-10-20T08:08:37.241Z,4
2016-10-20T08:09:50.300Z,4
2016-10-20T08:11:02.680Z,4
2016-10-20T08:12:16.175Z,4
2016-10-20T08:13:29.270Z,4
2016-10-20T08:14:42.803Z,8
2016-10-20T08:15:55.228Z,4
2016-10-20T08:17:08.410Z,8
2016-10-20T08:18:20.907Z,8
2016-10-20T08:19:34.350Z,8
2016-10-20T08:20:46.258Z,12
2016-10-20T08:21:59.791Z,8
2016-10-20T08:23:12.848Z,12
2016-10-20T08:24:24.700Z,16
2016-10-20T08:25:37.170Z,16
2016-10-20T08:26:49.663Z,16
2016-10-20T08:28:01.673Z,16
2016-10-20T08:29:14.097Z,16
2016-10-20T08:30:25.508Z,16
2016-10-20T08:31:37.456Z,16
2016-10-20T08:32:48.843Z,16
2016-10-20T08:34:00.916Z,20
2016-10-20T08:35:14.373Z,16
2016-10-20T08:36:27.307Z,20
2016-10-20T08:37:40.778Z,20
2016-10-20T08:38:52.193Z,24
2016-10-20T08:40:04.521Z,28
2016-10-20T08:41:15.879Z,32
2016-10-20T08:42:27.211Z,40
2016-10-20T08:43:40.144Z,44
2016-10-20T08:44:52.187Z,44
2016-10-20T08:46:03.598Z,48
2016-10-20T08:47:16.077Z,56
2016-10-20T08:48:28.527Z,60
2016-10-20T08:49:40.901Z,60
2016-10-20T08:50:53.837Z,60
2016-10-20T08:52:05.753Z,68
2016-10-20T08:53:18.818Z,68
2016-10-20T08:54:31.248Z,68
2016-10-20T08:55:43.914Z,72
2016-10-20T08:56:57.386Z,68
2016-10-20T08:58:10.320Z,72
2016-10-20T08:59:22.216Z,72
2016-10-20T09:00:34.744Z,76
2016-10-20T09:01:47.158Z,80
2016-10-20T09:03:00.145Z,84
2016-10-20T09:04:12.551Z,88
2016-10-20T09:05:25.067Z,88
2016-10-20T09:06:36.589Z,92
2016-10-20T09:07:49.581Z,96
2016-10-20T09:09:03.099Z,96
2016-10-20T09:10:14.964Z,100
2016-10-20T09:11:27.983Z,104
2016-10-20T09:12:39.390Z,104
2016-10-20T09:13:51.810Z,104
2016-10-20T09:15:04.750Z,112
2016-10-20T09:16:17.242Z,120
2016-10-20T09:17:30.352Z,124
2016-10-20T09:18:43.248Z,136
2016-10-20T09:19:56.280Z,144
2016-10-20T09:21:08.771Z,160
2016-10-20T09:22:20.229Z,176
2016-10-20T09:23:32.886Z,196
2016-10-20T09:24:46.311Z,212
2016-10-20T09:25:59.827Z,236
2016-10-20T09:27:12.251Z,260
2016-10-20T09:28:24.266Z,292
2016-10-20T09:29:37.167Z,320
2016-10-20T09:30:49.759Z,348
2016-10-20T09:32:03.076Z,384
2016-10-20T09:33:13.941Z,420
2016-10-20T09:34:26.959Z,464
2016-10-20T09:35:39.409Z,516
2016-10-20T09:36:52.940Z,568
2016-10-20T09:38:05.340Z,628
2016-10-20T09:39:17.888Z,688
2016-10-20T09:40:29.756Z,756
2016-10-20T09:41:42.196Z,832
2016-10-20T09:42:54.134Z,924
2016-10-20T09:44:07.838Z,1024
2016-10-20T09:45:20.331Z,1136
2016-10-20T09:46:33.804Z,1252
2016-10-20T09:47:47.409Z,1388
2016-10-20T09:48:59.899Z,1528
2016-10-20T09:50:12.363Z,1668
2016-10-20T09:51:25.588Z,1800
2016-10-20T09:52:54.538Z,1956
2016-10-20T09:54:28.799Z,2076
2016-10-20T09:55:54.229Z,2140
2016-10-20T09:57:23.659Z,2196
2016-10-20T09:58:51.782Z,2256
2016-10-20T10:00:21.323Z,2292
2016-10-20T10:01:34.401Z,2308
2016-10-20T10:02:46.378Z,2316
2016-10-20T10:03:58.742Z,2336
2016-10-20T10:05:11.629Z,2380
2016-10-20T10:06:23.995Z,2444
2016-10-20T10:07:37.824Z,2528
2016-10-20T10:08:50.779Z,2612
2016-10-20T10:10:04.291Z,2700
2016-10-20T10:11:16.757Z,2784
2016-10-20T10:12:30.323Z,2860
2016-10-20T10:13:43.195Z,2924
2016-10-20T10:14:56.139Z,2972
2016-10-20T10:16:07.982Z,2996
2016-10-20T10:17:20.468Z,3012
2016-10-20T10:18:33.017Z,3016
2016-10-20T10:19:45.442Z,3004
2016-10-20T10:20:58.389Z,2996
2016-10-20T10:22:11.408Z,2972
2016-10-20T10:23:22.826Z,2940
2016-10-20T10:24:35.189Z,2904
2016-10-20T10:25:47.689Z,2896
2016-10-20T10:27:00.123Z,2896
2016-10-20T10:28:12.542Z,2908
2016-10-20T10:29:24.540Z,2952
2016-10-20T10:30:37.470Z,3040
2016-10-20T10:32:04.830Z,3184
2016-10-20T10:33:29.862Z,3372
2016-10-20T10:34:44.140Z,3544
2016-10-20T10:35:56.569Z,3764
2016-10-20T10:37:09.782Z,4008
2016-10-20T10:38:23.093Z,4272
2016-10-20T10:39:35.576Z,4544
2016-10-20T10:40:49.077Z,4808
2016-10-20T10:42:01.502Z,5048
2016-10-20T10:43:13.932Z,5288
2016-10-20T10:44:28.773Z,5516
2016-10-20T10:45:41.264Z,5720
2016-10-20T10:46:54.296Z,5884
2016-10-20T10:48:06.189Z,6020
2016-10-20T10:49:18.765Z,6112
2016-10-20T10:50:30.715Z,6212
2016-10-20T10:51:43.661Z,6260
2016-10-20T10:52:56.059Z,6328
2016-10-20T10:54:09.130Z,6408
2016-10-20T10:55:20.726Z,6472
2016-10-20T10:56:33.605Z,6548
2016-10-20T10:57:46.621Z,6608
2016-10-20T10:59:00.164Z,6680
2016-10-20T11:00:12.640Z,6728
2016-10-20T11:01:25.571Z,6788
2016-10-20T11:02:39.262Z,6856
2016-10-20T11:03:52.757Z,6904
2016-10-20T11:05:06.211Z,6976
2016-10-20T11:06:19.241Z,7040
2016-10-20T11:07:33.295Z,7092
2016-10-20T11:08:46.460Z,7168
2016-10-20T11:09:59.493Z,7220
2016-10-20T11:11:12.629Z,7280
2016-10-20T11:12:24.541Z,7344
2016-10-20T11:13:37.003Z,7404
2016-10-20T11:14:48.453Z,7468
2016-10-20T11:16:01.633Z,7528
2016-10-20T11:17:16.312Z,7576
2016-10-20T11:18:28.734Z,7644
2016-10-20T11:19:40.589Z,7696
2016-10-20T11:20:52.488Z,7768
2016-10-20T11:22:05.464Z,7848
2016-10-20T11:23:17.599Z,7928
2016-10-20T11:24:29.618Z,7992
2016-10-20T11:25:47.453Z,8060
2016-10-20T11:27:19.596Z,8136
2016-10-20T11:28:43.745Z,8232
2016-10-20T11:29:55.724Z,8288
2016-10-20T11:31:09.709Z,8324
2016-10-20T11:32:22.906Z,8328
2016-10-20T11:33:36.464Z,8384
2016-10-20T11:34:49.417Z,8464
2016-10-20T11:36:01.885Z,8552
2016-10-20T11:37:15.465Z,8620
2016-10-20T11:38:27.952Z,8684
2016-10-20T11:39:40.438Z,8752
2016-10-20T11:40:53.953Z,8828
2016-10-20T11:42:06.640Z,8932
2016-10-20T11:43:19.776Z,9036
2016-10-20T11:44:32.907Z,9140
2016-10-20T11:45:46.450Z,9168
2016-10-20T11:46:59.394Z,9168
2016-10-20T11:48:11.306Z,9212
2016-10-20T11:49:22.693Z,9240
2016-10-20T11:50:35.134Z,9296
2016-10-20T11:51:47.068Z,9340
2016-10-20T11:53:00.559Z,9400
2016-10-20T11:54:13.141Z,9440
2016-10-20T11:55:25.614Z,9500
2016-10-20T11:56:38.568Z,9540
2016-10-20T11:57:51.039Z,9588
2016-10-20T11:59:04.116Z,9656
2016-10-20T12:00:17.029Z,9684
2016-10-20T12:01:28.914Z,9720
2016-10-20T12:02:42.525Z,9780
2016-10-20T12:03:55.036Z,9836
2016-10-20T12:05:08.251Z,9908
2016-10-20T12:06:20.643Z,9944
2016-10-20T12:07:33.718Z,9996
2016-10-20T12:08:47.285Z,10060
2016-10-20T12:10:00.171Z,10140
2016-10-20T12:11:13.173Z,10212
2016-10-20T12:12:25.130Z,10276
2016-10-20T12:13:38.309Z,10396
2016-10-20T12:14:50.738Z,10468
2016-10-20T12:16:03.860Z,10540
2016-10-20T12:17:16.337Z,10668
2016-10-20T12:18:28.747Z,10740
2016-10-20T12:19:41.256Z,10780
2016-10-20T12:20:54.195Z,10856
2016-10-20T12:22:07.663Z,10968
2016-10-20T12:23:19.650Z,11084
2016-10-20T12:24:32.133Z,11108
2016-10-20T12:25:44.524Z,11200
2016-10-20T12:26:59.638Z,11316
2016-10-20T12:28:12.156Z,11404
2016-10-20T12:29:25.690Z,11492
2016-10-20T12:30:38.190Z,11568
2016-10-20T12:31:51.193Z,11656
2016-10-20T12:33:03.702Z,11768
2016-10-20T12:34:16.738Z,11852
2016-10-20T12:35:29.759Z,11924
2016-10-20T12:36:44.067Z,12052
2016-10-20T12:38:01.864Z,12112
2016-10-20T12:39:19.319Z,12224
2016-10-20T12:40:35.543Z,12376
2016-10-20T12:41:48.642Z,12516
2016-10-20T12:43:02.142Z,12628
2016-10-20T12:44:14.563Z,12752
2016-10-20T12:45:27.596Z,12868
2016-10-20T12:46:40.053Z,13004
2016-10-20T12:47:52.634Z,13100
2016-10-20T12:49:05.531Z,13216
2016-10-20T12:50:17.983Z,13364
2016-10-20T12:51:30.358Z,13508
2016-10-20T12:52:42.803Z,13604
2016-10-20T12:53:56.096Z,13716
2016-10-20T12:55:09.083Z,13876
2016-10-20T12:56:21.322Z,13968
2016-10-20T12:57:34.205Z,14032
2016-10-20T12:58:47.794Z,14164
2016-10-20T13:00:00.869Z,14276
2016-10-20T13:01:13.863Z,14376
2016-10-20T13:03:00.215Z,14516
2016-10-20T13:04:23.656Z,14712
2016-10-20T13:05:39.887Z,14776
2016-10-20T13:06:52.947Z,14900
2016-10-20T13:08:07.876Z,15032
2016-10-20T13:09:20.939Z,15224
2016-10-20T13:10:33.378Z,15264
2016-10-20T13:11:47.918Z,15368
2016-10-20T13:13:02.758Z,15640
2016-10-20T13:14:15.881Z,15580
2016-10-20T13:15:28.582Z,15548
2016-10-20T13:16:41.245Z,15800
2016-10-20T13:17:54.541Z,15920
2016-10-20T13:19:08.166Z,16104
2016-10-20T13:20:24.536Z,16216
2016-10-20T13:21:38.241Z,16392
2016-10-20T13:22:51.570Z,16496
2016-10-20T13:24:04.016Z,16564
2016-10-20T13:25:17.066Z,16756
2016-10-20T13:26:30.026Z,17124
2016-10-20T13:27:42.445Z,17284
2016-10-20T13:28:55.920Z,17444
2016-10-20T13:30:09.010Z,17536
2016-10-20T13:31:22.153Z,17708
2016-10-20T13:32:34.645Z,18048
2016-10-20T13:33:47.670Z,18272
2016-10-20T13:35:00.616Z,18464
2016-10-20T13:36:14.231Z,18624
2016-10-20T13:37:27.342Z,18784
2016-10-20T13:38:40.300Z,18880
2016-10-20T13:39:52.718Z,18976
2016-10-20T13:41:05.903Z,19200
2016-10-20T13:42:19.601Z,19296
2016-10-20T13:43:32.688Z,19520
2016-10-20T13:44:45.652Z,19616
2016-10-20T13:45:58.157Z,19744
2016-10-20T13:47:10.760Z,19808
2016-10-20T13:48:22.648Z,19840
2016-10-20T13:49:34.614Z,19808
2016-10-20T13:50:47.619Z,19936
2016-10-20T13:52:00.006Z,19968
2016-10-20T13:53:11.622Z,20128
2016-10-20T13:54:24.165Z,20224
2016-10-20T13:55:36.575Z,20320
2016-10-20T13:56:49.568Z,20416
2016-10-20T13:58:02.527Z,20512
2016-10-20T13:59:14.621Z,20640
2016-10-20T14:00:27.602Z,20640
2016-10-20T14:01:39.511Z,20704
2016-10-20T14:02:51.997Z,20704
2016-10-20T14:04:04.516Z,20416
2016-10-20T14:05:17.952Z,20672
2016-10-20T14:06:30.371Z,20640
2016-10-20T14:07:43.829Z,20736
2016-10-20T14:08:56.313Z,20768
2016-10-20T14:10:08.748Z,20800
2016-10-20T14:11:21.234Z,20896
2016-10-20T14:12:33.759Z,20992
2016-10-20T14:13:46.811Z,21184
2016-10-20T14:15:00.188Z,21344
2016-10-20T14:16:13.141Z,21568
2016-10-20T14:17:26.062Z,21824
2016-10-20T14:18:37.975Z,22272
2016-10-20T14:19:50.489Z,22624
2016-10-20T14:21:03.463Z,23104
2016-10-20T14:22:15.900Z,23840
2016-10-20T14:23:28.916Z,26112
2016-10-20T14:24:41.885Z,28096
2016-10-20T14:25:54.039Z,28352
2016-10-20T14:27:05.974Z,28608
2016-10-20T14:28:17.966Z,28640
2016-10-20T14:29:31.065Z,28640
2016-10-20T14:30:43.001Z,28448
2016-10-20T14:31:56.150Z,28512
2016-10-20T14:33:09.173Z,28928
2016-10-20T14:34:21.244Z,28928
2016-10-20T14:35:35.129Z,28704
2016-10-20T14:36:48.056Z,28768
2016-10-20T14:38:09.251Z,28608
2016-10-20T14:39:38.841Z,29024
2016-10-20T14:41:07.591Z,28800
2016-10-20T14:42:21.321Z,28928
2016-10-20T14:43:33.861Z,28960
2016-10-20T14:44:45.352Z,29216
2016-10-20T14:45:59.051Z,29376
2016-10-20T14:47:12.190Z,28992
2016-10-20T14:48:24.103Z,28928
2016-10-20T14:49:36.077Z,28928
2016-10-20T14:50:48.604Z,28992
2016-10-20T14:52:01.037Z,28960
2016-10-20T14:53:14.732Z,28928
2016-10-20T14:54:27.755Z,29088
2016-10-20T14:55:40.840Z,29184
2016-10-20T14:56:54.715Z,29152
2016-10-20T14:58:07.306Z,29120
2016-10-20T14:59:19.214Z,29184
2016-10-20T15:00:32.256Z,29280
2016-10-20T15:01:44.841Z,29376
2016-10-20T15:03:00.441Z,29472
2016-10-20T15:04:15.131Z,29504
2016-10-20T15:05:28.538Z,29472
2016-10-20T15:06:41.581Z,29600
2016-10-20T15:07:53.535Z,29728
2016-10-20T15:09:05.972Z,29888
2016-10-20T15:10:17.991Z,29984
2016-10-20T15:11:29.927Z,30048
2016-10-20T15:12:43.143Z,30144
2016-10-20T15:13:56.298Z,30304
2016-10-20T15:15:09.406Z,30368
2016-10-20T15:16:21.865Z,30432
2016-10-20T15:17:34.938Z,30592
2016-10-20T15:18:47.371Z,30688
2016-10-20T15:19:59.340Z,30752
2016-10-20T15:21:12.911Z,30784
2016-10-20T15:22:24.857Z,30784
2016-10-20T15:23:37.297Z,30848
2016-10-20T15:24:49.302Z,30816
2016-10-20T15:26:03.085Z,30912
2016-10-20T15:27:16.353Z,30880
2016-10-20T15:28:28.578Z,30976
2016-10-20T15:29:41.602Z,31168
2016-10-20T15:30:53.535Z,31168
2016-10-20T15:52:55.296Z,30912
2016-10-20T15:54:08.070Z,30880
2016-10-20T15:55:20.457Z,30720
2016-10-20T15:56:32.913Z,30816
2016-10-20T15:57:46.521Z,30848
2016-10-20T15:58:58.465Z,30976
2016-10-20T16:00:10.447Z,31040
2016-10-20T16:01:23.513Z,31040
2016-10-20T16:02:36.517Z,30912
2016-10-20T16:03:49.161Z,30976
2016-10-20T16:05:02.155Z,31008
2016-10-20T16:06:15.046Z,31072
2016-10-20T16:07:28.338Z,31040
2016-10-20T16:08:41.557Z,31040
2016-10-20T16:09:54.511Z,31040
2016-10-20T16:11:07.055Z,31072
2016-10-20T16:12:20.076Z,31104
2016-10-20T16:13:33.116Z,31200
2016-10-20T16:14:46.240Z,31200
2016-10-20T16:15:59.742Z,31328
2016-10-20T16:17:13.279Z,31424
2016-10-20T16:18:25.748Z,31456
2016-10-20T16:19:39.368Z,31616
2016-10-20T16:20:52.351Z,31552
2016-10-20T16:22:05.386Z,31744
2016-10-20T16:23:18.541Z,31712
2016-10-20T16:24:32.041Z,31904
2016-10-20T16:25:45.698Z,32192
2016-10-20T16:26:57.141Z,32320
2016-10-20T16:28:10.138Z,32352
2016-10-20T16:29:23.162Z,32256
2016-10-20T16:30:35.679Z,32096
2016-10-20T16:31:47.121Z,32256
2016-10-20T16:33:00.116Z,32768
2016-10-20T16:34:13.112Z,32672
2016-10-20T16:35:25.615Z,32512
2016-10-20T16:36:38.336Z,32384
2016-10-20T16:37:51.318Z,32608
2016-10-20T16:39:04.410Z,33344
2016-10-20T16:40:15.890Z,33824
2016-10-20T16:41:29.406Z,34016
2016-10-20T16:42:41.965Z,33984
2016-10-20T16:43:55.007Z,33568
2016-10-20T16:45:08.002Z,33472
2016-10-20T16:46:21.208Z,34016
2016-10-20T16:47:34.274Z,34336
2016-10-20T16:48:46.250Z,34560
2016-10-20T16:49:59.423Z,34336
2016-10-20T16:51:11.955Z,34240
2016-10-20T16:52:24.924Z,34112
2016-10-20T16:53:38.069Z,34272
2016-10-20T16:54:51.227Z,34240
2016-10-20T16:56:03.126Z,33664
2016-10-20T16:57:16.147Z,34496
2016-10-20T16:58:28.774Z,34624
2016-10-20T16:59:42.352Z,34656
2016-10-20T17:00:55.405Z,34336
2016-10-20T17:02:07.858Z,34912
2016-10-20T17:03:21.031Z,35232
2016-10-20T17:04:34.026Z,35104
2016-10-20T17:05:46.535Z,35168
2016-10-20T17:07:00.053Z,35328
2016-10-20T17:08:13.089Z,35136
2016-10-20T17:09:26.191Z,34976
2016-10-20T17:10:39.196Z,35296
2016-10-20T17:11:51.660Z,35648
2016-10-20T17:13:04.666Z,36032
2016-10-20T17:14:17.938Z,36832
2016-10-20T17:15:31.001Z,36512
2016-10-20T17:16:43.517Z,36448
2016-10-20T17:17:57.004Z,36160